Time;durP1;ratioP1;P1;durP2;ratioP2;P2;SDS_P1;SDS_P2;PMS_P1;PMS_P2;Temp;Humidity;BMP_temperature;BMP_pressure;BME280_temperature;BME280_humidity;BME280_pressure;Samples;Min_cycle;Max_cycle;Signal;HPM_P1;HPM_P2
2021/04/24 00:01:32;;;;;;;15.10;8.07;;;4.80;85.30;;;;;;4985340;28;20125;-86
2021/04/24 00:03:59;;;;;;;13.70;8.25;;;4.70;85.60;;;;;;4982196;28;20038;-86
2021/04/24 00:06:26;;;;;;;12.95;7.85;;;4.70;85.80;;;;;;4998283;28;20042;-86
2021/04/24 00:08:52;;;;;;;15.48;8.60;;;4.60;85.50;;;;;;4987776;28;20052;-86
2021/04/24 00:11:19;;;;;;;15.52;8.48;;;4.60;85.70;;;;;;5005058;28;20129;-86
2021/04/24 00:13:45;;;;;;;16.60;9.48;;;4.50;86.30;;;;;;4991367;28;20112;-86
2021/04/24 00:16:11;;;;;;;14.35;8.82;;;4.40;86.90;;;;;;4990125;28;20069;-87
2021/04/24 00:18:37;;;;;;;13.90;8.00;;;4.50;87.40;;;;;;5004580;28;20053;-86
2021/04/24 00:21:05;;;;;;;14.63;8.00;;;4.40;87.50;;;;;;5005821;28;20404;-86
2021/04/24 00:23:30;;;;;;;15.80;8.40;;;4.40;87.50;;;;;;4999594;28;20046;-86
2021/04/24 00:25:57;;;;;;;14.73;8.63;;;4.40;87.90;;;;;;5007526;28;20049;-86
2021/04/24 00:28:23;;;;;;;16.75;9.10;;;4.50;88.50;;;;;;5006663;28;20348;-86
2021/04/24 00:30:49;;;;;;;16.10;8.10;;;4.40;88.90;;;;;;5008095;28;20045;-87
2021/04/24 00:33:15;;;;;;;14.18;8.88;;;4.40;89.20;;;;;;4988723;28;20129;-86
2021/04/24 00:35:41;;;;;;;15.23;8.32;;;4.40;89.30;;;;;;4989576;28;20360;-87
2021/04/24 00:38:08;;;;;;;12.00;7.57;;;4.30;89.40;;;;;;5006531;28;20041;-86
2021/04/24 00:40:34;;;;;;;11.80;7.20;;;4.30;89.20;;;;;;5006379;28;20048;-87
2021/04/24 00:43:00;;;;;;;12.10;7.60;;;4.20;88.80;;;;;;4990936;28;20045;-86
2021/04/24 00:45:26;;;;;;;14.38;8.05;;;4.30;88.70;;;;;;4989041;28;20037;-86
2021/04/24 00:47:53;;;;;;;13.88;8.05;;;;;;;;;;5007370;28;20140;-86
2021/04/24 00:50:32;;;;;;;15.88;8.18;;;4.10;87.80;;;;;;4997211;28;20540;-86
2021/04/24 00:52:58;;;;;;;11.35;7.05;;;4.00;88.70;;;;;;4990727;28;20121;-86
2021/04/24 00:55:24;;;;;;;13.07;7.47;;;4.00;88.80;;;;;;5010376;28;20042;-86
2021/04/24 00:57:50;;;;;;;12.80;7.60;;;4.00;88.60;;;;;;4995817;28;20076;-85
2021/04/24 01:00:18;;;;;;;15.25;8.07;;;4.00;88.30;;;;;;5010555;28;20053;-86
2021/04/24 01:02:44;;;;;;;13.70;7.78;;;4.00;88.30;;;;;;5011098;28;20051;-86
2021/04/24 01:05:16;;;;;;;14.43;8.40;;;4.10;88.00;;;;;;5005790;28;20046;-86
2021/04/24 01:07:42;;;;;;;14.00;8.48;;;4.10;88.10;;;;;;5001532;28;20061;-86
2021/04/24 01:10:10;;;;;;;15.63;8.57;;;4.10;88.10;;;;;;5010501;28;20493;-86
2021/04/24 01:12:37;;;;;;;14.90;8.80;;;4.10;88.20;;;;;;5004370;28;20104;-86
2021/04/24 01:15:05;;;;;;;15.98;8.93;;;4.10;88.30;;;;;;5008928;28;20038;-86
2021/04/24 01:17:32;;;;;;;12.32;8.00;;;4.10;88.60;;;;;;5006513;28;20450;-86
2021/04/24 01:19:59;;;;;;;14.73;8.57;;;4.20;88.80;;;;;;5009062;28;20042;-86
2021/04/24 01:22:25;;;;;;;14.60;8.85;;;4.20;88.40;;;;;;5008346;28;20049;-86
2021/04/24 01:24:51;;;;;;;18.08;8.82;;;4.20;88.10;;;;;;5009808;28;20103;-85
2021/04/24 01:27:18;;;;;;;13.25;8.30;;;4.20;88.10;;;;;;5009882;28;20049;-86
2021/04/24 01:29:44;;;;;;;13.27;7.85;;;4.30;88.50;;;;;;5006271;28;20056;-86
2021/04/24 01:32:10;;;;;;;14.60;9.00;;;4.30;88.40;;;;;;4999087;28;20058;-87
2021/04/24 01:34:37;;;;;;;14.40;8.38;;;4.30;88.30;;;;;;4993342;28;20638;-86
2021/04/24 01:37:03;;;;;;;16.45;9.48;;;4.30;88.60;;;;;;5007250;28;20069;-86
2021/04/24 01:39:31;;;;;;;15.75;8.30;;;4.30;88.10;;;;;;5009233;28;20045;-86
2021/04/24 01:41:57;;;;;;;14.82;8.10;;;4.20;88.40;;;;;;5009451;28;20045;-86
2021/04/24 01:44:24;;;;;;;13.73;8.57;;;4.20;88.50;;;;;;4999262;28;20058;-85
2021/04/24 01:46:50;;;;;;;14.07;8.77;;;4.20;88.30;;;;;;5005252;28;20149;-86
2021/04/24 01:49:16;;;;;;;13.55;8.65;;;4.20;88.40;;;;;;5010485;28;20057;-86
2021/04/24 01:51:43;;;;;;;15.43;9.00;;;4.20;88.60;;;;;;5009144;28;20046;-86
2021/04/24 01:54:09;;;;;;;13.80;7.68;;;4.10;88.70;;;;;;4993283;28;20464;-86
2021/04/24 01:56:45;;;;;;;12.10;8.00;;;4.10;88.90;;;;;;5007468;28;20073;-86
2021/04/24 01:59:12;;;;;;;16.10;7.82;;;4.10;89.00;;;;;;5007113;28;20088;-86
2021/04/24 02:01:39;;;;;;;15.07;8.18;;;4.10;88.60;;;;;;5007652;28;20053;-86
2021/04/24 02:04:05;;;;;;;15.07;7.13;;;4.10;88.40;;;;;;5006539;28;20393;-86
2021/04/24 02:06:32;;;;;;;12.98;8.38;;;4.00;88.50;;;;;;5010381;28;20122;-86
2021/04/24 02:08:58;;;;;;;14.10;7.97;;;4.00;88.60;;;;;;4986898;28;20466;-86
2021/04/24 02:11:24;;;;;;;15.30;8.30;;;4.00;88.50;;;;;;5006226;28;20041;-85
2021/04/24 02:13:51;;;;;;;13.65;7.80;;;4.00;88.30;;;;;;5007634;28;20053;-85
2021/04/24 02:16:17;;;;;;;12.23;7.72;;;4.00;88.30;;;;;;5009739;28;20065;-86
2021/04/24 02:18:44;;;;;;;12.40;7.35;;;4.00;88.40;;;;;;4989133;28;20086;-86
2021/04/24 02:21:10;;;;;;;11.45;7.57;;;3.90;88.50;;;;;;5010251;28;20510;-86
2021/04/24 02:23:38;;;;;;;13.50;7.85;;;3.80;88.50;;;;;;5008122;28;20050;-86
2021/04/24 02:26:06;;;;;;;16.35;8.40;;;3.70;88.80;;;;;;4993517;28;20381;-86
2021/04/24 02:28:32;;;;;;;14.05;8.15;;;3.70;89.40;;;;;;5007700;28;20157;-86
2021/04/24 02:30:58;;;;;;;17.50;8.63;;;3.60;89.40;;;;;;5002480;28;20061;-86
2021/04/24 02:33:24;;;;;;;11.07;6.80;;;3.60;90.00;;;;;;5002742;28;20034;-86
2021/04/24 02:35:54;;;;;;;11.90;7.80;;;3.60;90.10;;;;;;5007799;28;20112;-84
2021/04/24 02:38:26;;;;;;;14.35;7.47;;;3.60;90.10;;;;;;5006929;28;20132;-85
2021/04/24 02:40:54;;;;;;;15.20;7.40;;;3.50;90.20;;;;;;5008955;28;20057;-86
2021/04/24 02:43:20;;;;;;;11.90;6.88;;;3.40;90.30;;;;;;5007579;28;20046;-84
2021/04/24 02:45:47;;;;;;;11.88;7.15;;;3.40;90.30;;;;;;5005838;28;20041;-86
2021/04/24 02:48:14;;;;;;;10.32;6.40;;;3.40;90.30;;;;;;5006105;28;20070;-86
2021/04/24 02:50:40;;;;;;;12.50;7.18;;;3.40;90.10;;;;;;5007100;28;20081;-86
2021/04/24 02:53:06;;;;;;;12.63;6.78;;;3.30;90.20;;;;;;4990642;28;20454;-86
2021/04/24 02:55:33;;;;;;;12.02;6.63;;;3.40;90.10;;;;;;5007877;28;20038;-86
2021/04/24 02:57:59;;;;;;;14.10;6.80;;;3.40;90.00;;;;;;4990592;28;20054;-86
2021/04/24 03:00:26;;;;;;;12.35;7.00;;;3.30;90.00;;;;;;4998295;28;20050;-86
2021/04/24 03:03:03;;;;;;;11.98;7.10;;;3.40;90.20;;;;;;4999089;28;20042;-86
2021/04/24 03:05:29;;;;;;;12.05;6.70;;;3.40;90.20;;;;;;5007599;28;20046;-86
2021/04/24 03:07:55;;;;;;;12.98;7.22;;;3.40;89.80;;;;;;4999154;28;20047;-85
2021/04/24 03:10:21;;;;;;;12.98;7.07;;;3.40;89.80;;;;;;5006562;28;20041;-86
2021/04/24 03:12:47;;;;;;;16.45;7.80;;;3.50;90.00;;;;;;5007675;28;20053;-86
2021/04/24 03:15:14;;;;;;;9.98;6.72;;;3.50;90.10;;;;;;5004131;28;20496;-86
2021/04/24 03:17:40;;;;;;;11.45;6.80;;;3.50;90.00;;;;;;5002116;28;20124;-86
2021/04/24 03:20:09;;;;;;;12.02;7.60;;;3.50;89.70;;;;;;5005594;28;20151;-86
2021/04/24 03:22:35;;;;;;;14.98;8.45;;;3.50;89.60;;;;;;5004736;28;20060;-86
2021/04/24 03:25:01;;;;;;;14.65;8.05;;;3.50;89.80;;;;;;5002623;28;20046;-86
2021/04/24 03:27:27;;;;;;;15.50;8.10;;;3.50;90.10;;;;;;4995029;28;20046;-86
2021/04/24 03:29:52;;;;;;;12.82;7.60;;;3.50;90.10;;;;;;5008324;28;20049;-85
2021/04/24 03:32:18;;;;;;;10.90;6.85;;;3.50;90.30;;;;;;5007616;28;20105;-86
2021/04/24 03:34:46;;;;;;;12.35;6.93;;;3.40;90.30;;;;;;5007183;28;20064;-85
2021/04/24 03:37:12;;;;;;;14.90;7.53;;;3.30;90.10;;;;;;5005802;28;20045;-86
2021/04/24 03:39:38;;;;;;;14.68;7.68;;;3.40;90.00;;;;;;5005036;28;20129;-85
2021/04/24 03:42:04;;;;;;;14.93;8.32;;;3.40;90.10;;;;;;5001980;28;20120;-86
2021/04/24 03:44:30;;;;;;;12.38;7.45;;;3.40;90.30;;;;;;5007177;28;20066;-85
2021/04/24 03:46:56;;;;;;;11.23;7.32;;;3.40;90.50;;;;;;5005639;28;21561;-86
2021/04/24 03:49:22;;;;;;;11.07;6.80;;;3.30;90.70;;;;;;5008552;28;20223;-86
2021/04/24 03:51:48;;;;;;;12.52;7.25;;;3.30;90.70;;;;;;5007961;28;20049;-86
2021/04/24 03:54:13;;;;;;;13.95;8.00;;;3.20;90.50;;;;;;5001549;28;20468;-86
2021/04/24 03:56:39;;;;;;;12.75;7.35;;;3.40;90.50;;;;;;5004018;28;20046;-85
2021/04/24 03:59:05;;;;;;;11.50;7.43;;;3.30;90.60;;;;;;5008554;28;20128;-86
2021/04/24 04:01:31;;;;;;;13.02;8.38;;;3.30;90.60;;;;;;5004893;28;20128;-86
2021/04/24 04:03:57;;;;;;;12.77;7.07;;;3.30;90.90;;;;;;5006369;28;20092;-85
2021/04/24 04:06:23;;;;;;;15.75;8.13;;;3.30;90.70;;;;;;5006767;28;20053;-86
2021/04/24 04:08:48;;;;;;;11.73;6.75;;;3.20;90.70;;;;;;5003239;28;20117;-86
2021/04/24 04:11:15;;;;;;;14.85;7.82;;;3.20;91.10;;;;;;5008371;28;20042;-86
2021/04/24 04:13:41;;;;;;;14.05;8.00;;;3.30;90.80;;;;;;5007063;28;20058;-86
2021/04/24 04:16:07;;;;;;;15.90;8.60;;;3.30;90.80;;;;;;5006492;28;20104;-86
2021/04/24 04:18:36;;;;;;;13.02;7.55;;;3.30;91.10;;;;;;5005341;28;20117;-86
2021/04/24 04:21:04;;;;;;;13.95;7.53;;;3.20;91.10;;;;;;4994569;28;20050;-86
2021/04/24 04:23:30;;;;;;;13.75;7.40;;;3.20;91.10;;;;;;5004075;28;20046;-86
2021/04/24 04:25:57;;;;;;;12.02;7.38;;;3.20;91.30;;;;;;5004513;28;20049;-86
2021/04/24 04:28:23;;;;;;;12.15;6.95;;;3.20;91.20;;;;;;4988703;28;20145;-85
2021/04/24 04:30:51;;;;;;;13.57;7.80;;;3.20;91.00;;;;;;5005857;28;20066;-86
2021/04/24 04:33:18;;;;;;;14.13;7.97;;;3.20;91.10;;;;;;4989038;28;20132;-86
2021/04/24 04:35:44;;;;;;;12.07;7.53;;;3.30;91.20;;;;;;4990169;28;20056;-86
2021/04/24 04:38:10;;;;;;;12.90;7.57;;;3.30;91.20;;;;;;5000358;28;20049;-86
2021/04/24 04:40:37;;;;;;;11.93;6.90;;;3.30;91.30;;;;;;5002498;28;20496;-86
2021/04/24 04:43:04;;;;;;;10.27;6.55;;;3.20;91.10;;;;;;5007894;28;20149;-86
2021/04/24 04:45:31;;;;;;;13.07;6.90;;;3.20;90.60;;;;;;5004408;28;20045;-86
2021/04/24 04:47:56;;;;;;;13.25;7.53;;;3.20;90.30;;;;;;5007634;28;20052;-85
2021/04/24 04:50:28;;;;;;;13.35;7.90;;;3.20;90.40;;;;;;5003537;28;20051;-86
2021/04/24 04:52:56;;;;;;;17.55;7.97;;;3.30;90.80;;;;;;5006685;28;20049;-85
2021/04/24 04:55:22;;;;;;;10.27;6.45;;;3.30;91.00;;;;;;5007273;28;20049;-85
2021/04/24 04:57:50;;;;;;;8.80;5.72;;;3.40;90.80;;;;;;5007186;28;20495;-86
2021/04/24 05:00:18;;;;;;;11.48;6.13;;;3.30;90.10;;;;;;5005238;28;20145;-86
2021/04/24 05:02:44;;;;;;;11.23;6.32;;;3.30;89.70;;;;;;5005615;28;20049;-86
2021/04/24 05:05:12;;;;;;;11.80;7.10;;;3.40;89.40;;;;;;4989476;28;20076;-86
2021/04/24 05:07:38;;;;;;;13.38;7.18;;;3.40;89.20;;;;;;5003571;28;20038;-86
2021/04/24 05:10:07;;;;;;;9.50;5.55;;;3.40;89.40;;;;;;5004635;28;20487;-86
2021/04/24 05:12:33;;;;;;;9.90;5.50;;;3.40;89.00;;;;;;5004964;28;20065;-86
2021/04/24 05:14:58;;;;;;;13.55;7.18;;;3.50;88.50;;;;;;5003060;28;20046;-86
2021/04/24 05:17:24;;;;;;;13.20;7.38;;;3.50;89.60;;;;;;5004662;28;20041;-85
2021/04/24 05:19:50;;;;;;;11.23;6.57;;;3.70;89.70;;;;;;5007103;28;20110;-86
2021/04/24 05:22:16;;;;;;;15.25;8.18;;;3.80;89.70;;;;;;5006307;28;20081;-86
2021/04/24 05:24:42;;;;;;;16.42;9.07;;;3.90;90.00;;;;;;5006692;28;20049;-86
2021/04/24 05:27:08;;;;;;;18.75;11.25;;;3.90;90.10;;;;;;5007322;28;20038;-86
2021/04/24 05:29:34;;;;;;;19.75;10.45;;;4.10;90.40;;;;;;5005513;28;20484;-86
2021/04/24 05:32:01;;;;;;;16.98;8.70;;;4.10;90.80;;;;;;5005577;28;20491;-85
2021/04/24 05:34:27;;;;;;;14.80;9.00;;;4.20;91.00;;;;;;5007906;28;20496;-86
2021/04/24 05:36:54;;;;;;;16.58;8.95;;;4.30;91.10;;;;;;5004498;28;20073;-86
2021/04/24 05:39:20;;;;;;;19.98;9.60;;;4.40;91.20;;;;;;5006737;28;20050;-86
2021/04/24 05:41:46;;;;;;;17.35;9.32;;;4.50;91.40;;;;;;5010626;28;20128;-85
2021/04/24 05:44:12;;;;;;;18.45;9.65;;;4.60;91.60;;;;;;5011157;28;20481;-86
2021/04/24 05:46:38;;;;;;;16.50;8.90;;;4.80;91.90;;;;;;5009140;28;20495;-86
2021/04/24 05:49:04;;;;;;;17.83;8.93;;;4.90;92.10;;;;;;5002803;28;20041;-86
2021/04/24 05:51:30;;;;;;;16.77;9.00;;;5.00;92.10;;;;;;4993813;28;20046;-86
2021/04/24 05:53:56;;;;;;;17.88;9.02;;;5.00;92.20;;;;;;4990815;28;20141;-85
2021/04/24 05:56:23;;;;;;;19.02;8.20;;;5.10;92.30;;;;;;5010503;28;20068;-85
2021/04/24 05:58:50;;;;;;;16.35;8.65;;;5.10;92.60;;;;;;5008693;28;20126;-86
2021/04/24 06:01:16;;;;;;;16.92;9.25;;;5.20;92.50;;;;;;4993020;28;20081;-86
2021/04/24 06:03:42;;;;;;;17.58;8.48;;;5.30;92.50;;;;;;5009343;28;20068;-86
2021/04/24 06:06:08;;;;;;;18.38;11.73;;;5.30;92.50;;;;;;5009147;28;20046;-86
2021/04/24 06:08:33;;;;;;;16.02;8.68;;;5.40;92.60;;;;;;4987333;28;20073;-86
2021/04/24 06:11:00;;;;;;;17.50;9.52;;;5.50;92.60;;;;;;5010139;28;20073;-86
2021/04/24 06:13:27;;;;;;;13.25;8.38;;;5.60;92.50;;;;;;5008764;28;20061;-85
2021/04/24 06:15:53;;;;;;;15.95;7.95;;;5.70;92.60;;;;;;4987284;28;20119;-85
2021/04/24 06:18:19;;;;;;;14.30;8.00;;;5.80;92.60;;;;;;5008376;28;20046;-86
2021/04/24 06:20:45;;;;;;;16.33;8.45;;;6.00;92.50;;;;;;5000582;28;20046;-86
2021/04/24 06:23:13;;;;;;;16.92;8.25;;;6.00;92.30;;;;;;5007765;28;20058;-86
2021/04/24 06:25:40;;;;;;;15.30;8.02;;;6.10;92.20;;;;;;5009957;28;20096;-86
2021/04/24 06:28:06;;;;;;;14.65;7.40;;;6.20;92.10;;;;;;5008490;28;20404;-86
2021/04/24 06:30:32;;;;;;;15.13;6.32;;;6.40;91.80;;;;;;5009543;28;20061;-86
2021/04/24 06:32:58;;;;;;;15.05;6.97;;;6.60;91.40;;;;;;4991613;28;20046;-85
2021/04/24 06:35:27;;;;;;;17.25;7.13;;;6.70;90.90;;;;;;5004686;28;20465;-86
2021/04/24 06:37:56;;;;;;;11.13;5.35;;;6.90;90.90;;;;;;5004059;28;20240;-86
2021/04/24 06:40:22;;;;;;;12.13;5.85;;;7.10;90.50;;;;;;4991723;28;20049;-86
2021/04/24 06:42:49;;;;;;;12.07;4.90;;;7.30;89.50;;;;;;5010920;28;20507;-86
2021/04/24 06:45:15;;;;;;;12.52;5.32;;;7.40;88.20;;;;;;5009382;28;20052;-86
2021/04/24 06:47:41;;;;;;;11.82;5.80;;;7.50;86.70;;;;;;4990808;28;20081;-86
2021/04/24 06:50:10;;;;;;;10.75;5.95;;;7.50;85.30;;;;;;5007435;28;20117;-86
2021/04/24 06:52:36;;;;;;;9.52;5.15;;;7.40;85.50;;;;;;5007269;28;20492;-86
2021/04/24 06:55:04;;;;;;;10.93;4.72;;;7.50;86.10;;;;;;5008667;28;20059;-86
2021/04/24 06:57:30;;;;;;;14.13;4.85;;;7.70;85.50;;;;;;5007797;28;20042;-86
2021/04/24 06:59:55;;;;;;;12.88;4.43;;;7.90;84.20;;;;;;5001767;28;20185;-86
2021/04/24 07:02:21;;;;;;;9.40;3.95;;;8.10;82.60;;;;;;5004532;28;20044;-86
2021/04/24 07:04:47;;;;;;;10.98;3.95;;;8.30;80.40;;;;;;5007883;28;20128;-86
2021/04/24 07:07:13;;;;;;;7.47;2.70;;;8.40;81.10;;;;;;5003349;28;20104;-86
2021/04/24 07:09:39;;;;;;;14.65;4.85;;;8.40;80.20;;;;;;5007794;28;20045;-86
2021/04/24 07:12:06;;;;;;;10.43;4.38;;;8.30;80.70;;;;;;5003395;28;20038;-86
2021/04/24 07:14:31;;;;;;;14.25;4.78;;;8.30;80.60;;;;;;5006990;28;20052;-86
2021/04/24 07:16:58;;;;;;;12.77;4.70;;;8.20;80.10;;;;;;5007320;28;20042;-86
2021/04/24 07:19:24;;;;;;;10.00;4.38;;;8.10;80.70;;;;;;5008843;28;20109;-86
2021/04/24 07:21:50;;;;;;;11.80;4.30;;;8.10;80.90;;;;;;5000137;28;20050;-86
2021/04/24 07:24:15;;;;;;;10.65;4.80;;;8.10;81.10;;;;;;4998308;28;20495;-86
2021/04/24 07:26:41;;;;;;;11.77;5.18;;;8.30;79.60;;;;;;5003913;28;20085;-87
2021/04/24 07:29:07;;;;;;;11.52;4.78;;;8.40;80.00;;;;;;5007622;28;20045;-86
2021/04/24 07:31:34;;;;;;;14.32;4.68;;;8.60;79.60;;;;;;4990888;28;20561;-87
2021/04/24 07:34:00;;;;;;;12.07;4.80;;;8.80;77.50;;;;;;5006605;28;20061;-87
2021/04/24 07:36:27;;;;;;;11.48;3.70;;;8.90;77.50;;;;;;5005077;28;20057;-87
2021/04/24 07:38:53;;;;;;;10.30;3.92;;;9.00;77.70;;;;;;5004994;28;20049;-86
2021/04/24 07:41:19;;;;;;;8.98;3.75;;;9.20;76.00;;;;;;5009549;28;20057;-87
2021/04/24 07:43:45;;;;;;;13.02;3.70;;;9.40;74.50;;;;;;5006308;28;20054;-87
2021/04/24 07:46:11;;;;;;;13.95;4.95;;;9.50;75.10;;;;;;5006565;28;20401;-87
2021/04/24 07:48:37;;;;;;;7.82;2.63;;;9.60;74.00;;;;;;4989805;28;20050;-86
2021/04/24 07:51:04;;;;;;;12.32;4.10;;;9.60;72.40;;;;;;4996708;28;20129;-87
2021/04/24 07:53:29;;;;;;;13.63;4.78;;;9.50;73.20;;;;;;4988176;28;20049;-86
2021/04/24 07:55:55;;;;;;;10.73;4.28;;;9.30;74.00;;;;;;5006224;28;20046;-87
2021/04/24 07:58:21;;;;;;;12.13;4.57;;;9.40;75.00;;;;;;5007125;28;20045;-85
2021/04/24 08:00:47;;;;;;;14.25;4.75;;;9.60;74.50;;;;;;5006526;28;20080;-87
2021/04/24 08:03:13;;;;;;;11.52;4.72;;;9.80;72.50;;;;;;5007668;28;20053;-87
2021/04/24 08:05:39;;;;;;;11.90;4.20;;;10.00;72.90;;;;;;5006339;28;20494;-88
2021/04/24 08:08:05;;;;;;;13.90;4.40;;;10.10;71.60;;;;;;4999356;28;20049;-87
2021/04/24 08:10:31;;;;;;;12.32;4.05;;;10.10;70.10;;;;;;4996016;28;20084;-87
2021/04/24 08:13:07;;;;;;;11.60;4.22;;;10.10;71.00;;;;;;5006381;28;20065;-87
2021/04/24 08:15:33;;;;;;;10.73;4.43;;;10.10;71.30;;;;;;4989465;28;20066;-87
2021/04/24 08:17:59;;;;;;;11.00;4.20;;;10.00;70.70;;;;;;5007126;28;20069;-87
2021/04/24 08:20:25;;;;;;;11.38;3.70;;;10.10;70.60;;;;;;5008545;28;20086;-87
2021/04/24 08:22:51;;;;;;;10.55;4.07;;;10.10;70.20;;;;;;5007222;28;20034;-87
2021/04/24 08:25:18;;;;;;;12.40;4.63;;;10.10;69.10;;;;;;5007134;28;20060;-87
2021/04/24 08:27:44;;;;;;;15.73;4.20;;;10.00;69.90;;;;;;5005495;28;20449;-86
2021/04/24 08:30:13;;;;;;;11.63;4.25;;;10.00;70.70;;;;;;5007278;28;20054;-87
2021/04/24 08:32:40;;;;;;;12.45;4.38;;;10.00;70.20;;;;;;5006564;28;20046;-87
2021/04/24 08:35:08;;;;;;;8.23;3.75;;;10.00;69.40;;;;;;4990057;28;20042;-87
2021/04/24 08:37:35;;;;;;;13.93;3.95;;;10.20;69.60;;;;;;5001370;28;20097;-87
2021/04/24 08:40:01;;;;;;;14.00;3.72;;;10.40;68.30;;;;;;5006585;28;20100;-87
2021/04/24 08:42:28;;;;;;;9.13;3.08;;;10.50;67.90;;;;;;5007313;28;20056;-86
2021/04/24 08:44:54;;;;;;;14.05;4.40;;;10.60;67.90;;;;;;5004883;28;20046;-86
2021/04/24 08:47:24;;;;;;;9.48;3.42;;;10.60;68.10;;;;;;4999993;28;20406;-87
2021/04/24 08:49:53;;;;;;;11.18;4.28;;;10.70;66.60;;;;;;5004166;28;20042;-87
2021/04/24 08:52:20;;;;;;;8.95;3.47;;;10.60;65.90;;;;;;5004475;28;20042;-87
2021/04/24 08:54:46;;;;;;;10.40;3.00;;;10.60;66.40;;;;;;5006210;28;20154;-87
2021/04/24 08:57:12;;;;;;;13.30;4.38;;;10.50;66.00;;;;;;5003511;28;20112;-88
2021/04/24 08:59:38;;;;;;;10.00;4.47;;;10.50;67.40;;;;;;5007657;28;20054;-88
2021/04/24 09:02:04;;;;;;;13.45;4.13;;;10.70;67.70;;;;;;5005045;28;20076;-88
2021/04/24 09:04:29;;;;;;;13.02;4.18;;;10.80;67.40;;;;;;4977593;28;20415;-88
2021/04/24 09:06:57;;;;;;;8.70;3.53;;;11.00;67.50;;;;;;5004892;28;20065;-87
2021/04/24 09:09:27;;;;;;;10.57;3.88;;;11.20;65.80;;;;;;4979044;28;20052;-87
2021/04/24 09:12:01;;;;;;;13.25;3.95;;;11.20;66.60;;;;;;5001342;28;20046;-88
2021/04/24 09:14:28;;;;;;;12.57;3.75;;;11.20;66.80;;;;;;5009470;28;20128;-87
2021/04/24 09:16:54;;;;;;;13.68;4.32;;;11.30;65.80;;;;;;5006184;28;20056;-87
2021/04/24 09:19:30;;;;;;;8.13;3.70;;;11.40;66.20;;;;;;5010482;28;20046;-87
2021/04/24 09:22:13;;;;;;;10.98;3.92;;;11.60;65.80;;;;;;5007445;28;20129;-87
2021/04/24 09:24:40;;;;;;;7.82;3.40;;;11.70;64.20;;;;;;5009536;28;20056;-88
2021/04/24 09:27:07;;;;;;;11.18;3.90;;;11.70;60.00;;;;;;5007648;28;20104;-87
2021/04/24 09:29:33;;;;;;;8.65;3.90;;;11.60;60.00;;;;;;4993813;28;20100;-88
2021/04/24 09:32:32;;;;;;;9.48;3.30;;;11.70;59.90;;;;;;5008344;28;20046;-88
2021/04/24 09:34:57;;;;;;;10.98;3.85;;;11.90;58.60;;;;;;4948039;28;20050;-89
2021/04/24 09:37:23;;;;;;;9.38;3.13;;;11.90;58.50;;;;;;4998171;28;20500;-88
2021/04/24 09:39:54;;;;;;;11.80;3.60;;;11.90;57.90;;;;;;4992131;28;20052;-88
2021/04/24 09:42:36;;;;;;;10.80;3.10;;;11.80;58.40;;;;;;4989320;28;20076;-89
2021/04/24 09:45:26;;;;;;;6.95;2.70;;;11.80;58.30;;;;;;4995790;28;20066;-89
2021/04/24 09:47:52;;;;;;;7.18;2.95;;;12.00;57.20;;;;;;4999574;28;20508;-87
2021/04/24 09:50:23;;;;;;;8.52;2.92;;;11.90;57.20;;;;;;5009996;28;20050;-89
2021/04/24 09:52:50;;;;;;;8.63;3.13;;;12.10;56.40;;;;;;4999582;28;20057;-88
2021/04/24 09:55:34;;;;;;;5.82;2.58;;;12.20;54.30;;;;;;4994130;28;20061;-88
2021/04/24 09:58:01;;;;;;;8.13;2.67;;;12.00;53.00;;;;;;4960390;28;20045;-87
2021/04/24 10:00:29;;;;;;;6.00;2.20;;;12.30;54.00;;;;;;5008176;28;20045;-88
2021/04/24 10:02:56;;;;;;;4.97;2.20;;;12.50;52.10;;;;;;5003870;28;20493;-88
2021/04/24 10:05:23;;;;;;;6.30;2.55;;;12.80;48.90;;;;;;5004802;28;20473;-85
2021/04/24 10:07:53;;;;;;;4.47;2.33;;;12.80;49.00;;;;;;4998160;28;20057;-87
2021/04/24 10:10:31;;;;;;;7.93;2.90;;;12.90;49.50;;;;;;4989895;28;20096;-88
2021/04/24 10:12:59;;;;;;;4.05;2.08;;;13.00;48.90;;;;;;4976740;28;20049;-88
2021/04/24 10:15:37;;;;;;;6.43;2.38;;;12.90;47.00;;;;;;4982448;28;20053;-89
2021/04/24 10:18:04;;;;;;;6.30;2.33;;;13.00;47.00;;;;;;4996246;28;20046;-89
2021/04/24 10:20:32;;;;;;;6.53;1.90;;;12.80;45.00;;;;;;4990537;28;20050;-90
2021/04/24 10:23:00;;;;;;;5.38;2.15;;;13.00;45.90;;;;;;4994799;28;20048;-88
2021/04/24 10:25:26;;;;;;;5.75;2.40;;;13.20;45.80;;;;;;5008398;28;20054;-88
2021/04/24 10:27:52;;;;;;;6.38;2.60;;;13.30;46.80;;;;;;5003888;28;20050;-87
2021/04/24 10:30:19;;;;;;;5.82;2.60;;;13.30;48.20;;;;;;4998876;28;20139;-89
2021/04/24 10:32:47;;;;;;;7.00;2.58;;;13.30;45.20;;;;;;4992581;28;20374;-89
2021/04/24 10:35:14;;;;;;;6.75;3.28;;;13.40;49.20;;;;;;5008145;28;20052;-89
2021/04/24 10:37:45;;;;;;;6.60;2.42;;;13.30;50.10;;;;;;5008442;28;20442;-88
2021/04/24 10:40:11;;;;;;;8.18;2.65;;;13.50;48.20;;;;;;4985283;28;20058;-89
2021/04/24 10:43:10;;;;;;;9.00;3.30;;;13.70;47.90;;;;;;4986862;28;20054;-88
2021/04/24 10:45:37;;;;;;;8.13;3.38;;;13.70;48.50;;;;;;4966644;28;20056;-87
2021/04/24 10:48:04;;;;;;;11.20;3.30;;;13.70;49.40;;;;;;4990505;28;20128;-87
2021/04/24 10:50:38;;;;;;;9.25;3.20;;;13.80;48.80;;;;;;5009803;28;20042;-88
2021/04/24 10:53:24;;;;;;;7.40;2.70;;;13.70;49.40;;;;;;5006359;28;20045;-88
2021/04/24 10:55:52;;;;;;;5.38;2.42;;;13.70;47.80;;;;;;5007467;28;20050;-88
2021/04/24 10:58:23;;;;;;;8.00;2.83;;;13.90;46.10;;;;;;5006092;28;20050;-87
2021/04/24 11:01:04;;;;;;;9.48;3.65;;;14.00;47.70;;;;;;5009628;28;20100;-87
2021/04/24 11:03:50;;;;;;;5.50;2.47;;;13.90;48.90;;;;;;4985979;28;20066;-87
2021/04/24 11:06:22;;;;;;;8.25;2.88;;;14.00;48.10;;;;;;5003638;28;20058;-88
2021/04/24 11:08:51;;;;;;;7.63;2.55;;;14.00;48.50;;;;;;5005485;28;20046;-87
2021/04/24 11:11:21;;;;;;;8.30;2.47;;;14.00;45.20;;;;;;5003344;28;20057;-88
2021/04/24 11:13:55;;;;;;;7.22;2.60;;;13.80;47.10;;;;;;5006760;28;20056;-87
2021/04/24 11:16:22;;;;;;;5.53;2.30;;;13.90;47.90;;;;;;5007524;28;20054;-87
2021/04/24 11:18:50;;;;;;;5.57;2.42;;;13.90;46.20;;;;;;5007667;28;20049;-87
2021/04/24 11:21:23;;;;;;;6.88;2.70;;;13.70;47.90;;;;;;5007678;28;20503;-87
2021/04/24 11:24:00;;;;;;;6.70;2.40;;;13.80;49.50;;;;;;5008514;28;20141;-87
2021/04/24 11:26:35;;;;;;;7.07;2.65;;;14.10;46.00;;;;;;5007848;28;20491;-87
2021/04/24 11:29:10;;;;;;;6.70;2.50;;;14.20;45.70;;;;;;5005752;28;20046;-87
2021/04/24 11:31:55;;;;;;;;;;;13.90;44.80;;;;;;5009187;28;20068;-87
2021/04/24 11:34:29;;;;;;;6.32;2.42;;;13.90;45.50;;;;;;4999274;28;19967;-86
2021/04/24 11:37:11;;;;;;;3.92;1.70;;;14.20;44.00;;;;;;5000616;28;20053;-87
2021/04/24 11:39:38;;;;;;;4.53;2.20;;;14.10;42.70;;;;;;4990444;28;20105;-86
2021/04/24 11:42:27;;;;;;;6.07;2.20;;;13.70;44.50;;;;;;4989879;28;20049;-87
2021/04/24 11:44:53;;;;;;;5.82;2.03;;;13.60;44.20;;;;;;4997027;28;20124;-86
2021/04/24 11:47:43;;;;;;;9.75;2.40;;;13.50;45.40;;;;;;5004223;28;20056;-87
2021/04/24 11:50:17;;;;;;;7.28;2.63;;;13.40;47.00;;;;;;4994776;28;20050;-87
2021/04/24 11:52:57;;;;;;;6.10;2.50;;;13.50;48.90;;;;;;5003671;28;20052;-87
2021/04/24 11:55:24;;;;;;;8.73;2.53;;;13.50;47.70;;;;;;5001739;28;20057;-87
2021/04/24 11:58:10;;;;;;;6.17;2.10;;;13.90;45.70;;;;;;5008507;28;20050;-87
2021/04/24 12:00:37;;;;;;;8.15;2.58;;;13.90;45.00;;;;;;4992665;28;20389;-87
2021/04/24 12:03:04;;;;;;;6.88;2.25;;;13.90;46.80;;;;;;5006904;28;21382;-87
2021/04/24 12:05:30;;;;;;;6.63;2.47;;;13.80;46.30;;;;;;5007350;28;20496;-87
2021/04/24 12:07:56;;;;;;;6.50;2.40;;;13.90;47.20;;;;;;5005688;28;20506;-87
2021/04/24 12:10:29;;;;;;;2.92;1.70;;;14.10;46.90;;;;;;5007334;28;20050;-84
2021/04/24 12:13:09;;;;;;;7.63;2.50;;;14.30;43.60;;;;;;5005446;28;20095;-87
2021/04/24 12:15:35;;;;;;;5.93;2.40;;;14.20;44.80;;;;;;5005970;28;20127;-87
2021/04/24 12:18:04;;;;;;;4.88;1.60;;;13.90;45.90;;;;;;4987318;28;20049;-87
2021/04/24 12:20:38;;;;;;;4.72;1.80;;;14.00;44.40;;;;;;4996255;28;20053;-88
2021/04/24 12:23:07;;;;;;;4.13;1.80;;;13.90;43.20;;;;;;5000931;28;20112;-87
2021/04/24 12:25:38;;;;;;;3.72;2.15;;;13.80;43.90;;;;;;4994468;28;20045;-88
2021/04/24 12:28:07;;;;;;;6.30;2.30;;;13.70;43.80;;;;;;4974904;28;21040;-87
2021/04/24 12:30:37;;;;;;;4.18;2.00;;;13.50;45.60;;;;;;4980295;28;20053;-88
2021/04/24 12:33:14;;;;;;;6.07;2.30;;;13.60;44.30;;;;;;4977769;28;20037;-87
2021/04/24 12:36:00;;;;;;;6.03;2.25;;;13.70;45.90;;;;;;4995512;28;22206;-88
2021/04/24 12:38:30;;;;;;;5.00;2.03;;;13.80;44.80;;;;;;4985285;28;20066;-88
2021/04/24 12:41:00;;;;;;;6.18;2.28;;;13.90;44.20;;;;;;4983344;28;20100;-87
2021/04/24 12:43:29;;;;;;;4.45;2.20;;;13.90;43.40;;;;;;4984913;28;20053;-88
2021/04/24 12:46:01;;;;;;;6.00;2.10;;;13.90;43.50;;;;;;4998001;28;21271;-88
2021/04/24 12:48:41;;;;;;;5.97;2.08;;;13.90;44.40;;;;;;4978017;28;20050;-87
2021/04/24 12:51:17;;;;;;;6.80;2.00;;;14.20;42.80;;;;;;4982863;28;20093;-87